Time;durP1;ratioP1;P1;durP2;ratioP2;P2;SDS_P1;SDS_P2;PMS_P1;PMS_P2;Temp;Humidity;BMP_temperature;BMP_pressure;BME280_temperature;BME280_humidity;BME280_pressure;Samples;Min_cycle;Max_cycle;Signal;HPM_P1;HPM_P2
2021/12/07 00:00:52;;;;;;;2.20;1.20;;;;;;;2.27;85.92;98008.78;5063662;28;20301;-57
2021/12/07 00:03:20;;;;;;;1.60;0.97;;;;;;;2.23;86.14;98000.47;5063975;28;20194;-58
2021/12/07 00:05:47;;;;;;;1.33;1.03;;;;;;;2.27;87.29;97988.19;5064751;28;20186;-56
2021/12/07 00:08:14;;;;;;;1.23;0.83;;;;;;;2.26;88.03;98007.97;5064290;28;20717;-56
2021/12/07 00:10:42;;;;;;;1.20;0.83;;;;;;;2.28;88.05;98000.94;5063215;28;20209;-58
2021/12/07 00:13:10;;;;;;;1.10;0.83;;;;;;;2.28;88.17;98016.41;5058961;28;20280;-58
2021/12/07 00:15:37;;;;;;;1.30;0.90;;;;;;;2.29;88.90;98035.25;5058984;28;20186;-57
2021/12/07 00:18:04;;;;;;;1.70;0.90;;;;;;;2.30;88.81;98016.28;5059799;28;20204;-58
2021/12/07 00:20:31;;;;;;;1.10;0.90;;;;;;;2.30;88.79;98031.72;5057015;28;20207;-57
2021/12/07 00:23:00;;;;;;;1.37;1.07;;;;;;;2.33;88.83;98029.78;5059171;28;20551;-58
2021/12/07 00:25:27;;;;;;;1.43;0.90;;;;;;;2.36;89.17;98031.28;5063625;28;20219;-57
2021/12/07 00:27:56;;;;;;;1.43;0.90;;;;;;;2.42;89.43;98056.59;5066713;28;20278;-57
2021/12/07 00:30:27;;;;;;;1.10;0.93;;;;;;;2.52;89.68;98051.59;5058502;28;20204;-58
2021/12/07 00:33:08;;;;;;;2.80;1.03;;;;;;;2.55;88.12;98060.84;5057294;28;20225;-56
2021/12/07 00:35:35;;;;;;;2.10;1.00;;;;;;;2.56;87.53;98039.28;5058269;28;20196;-57
2021/12/07 00:38:06;;;;;;;3.13;1.03;;;;;;;2.56;88.17;98047.03;5055337;28;20196;-57
2021/12/07 00:40:35;;;;;;;2.80;1.20;;;;;;;2.58;88.59;98042.56;5066241;28;20202;-56
2021/12/07 00:43:04;;;;;;;1.50;1.13;;;;;;;2.58;88.05;98038.25;5054575;28;20191;-56
2021/12/07 00:45:32;;;;;;;2.90;1.20;;;;;;;2.61;87.94;98047.50;5054585;28;20265;-57
2021/12/07 00:48:00;;;;;;;1.73;1.07;;;;;;;2.62;89.42;98051.72;5054895;28;20265;-57
2021/12/07 00:50:28;;;;;;;1.10;0.80;;;;;;;2.64;88.38;98037.81;5053954;28;21305;-58
2021/12/07 00:52:57;;;;;;;1.00;0.80;;;;;;;2.71;88.75;98040.72;5067034;28;20280;-57
2021/12/07 00:55:28;;;;;;;1.30;0.80;;;;;;;2.72;88.98;98047.53;5068102;28;20190;-56
2021/12/07 00:57:57;;;;;;;1.23;0.87;;;;;;;2.79;86.04;98040.97;5059148;28;20238;-55
2021/12/07 01:00:29;;;;;;;1.33;0.87;;;;;;;2.86;87.43;98035.34;5060071;28;20302;-56
2021/12/07 01:02:57;;;;;;;1.60;1.00;;;;;;;2.89;86.91;98025.63;5059677;28;20745;-57
2021/12/07 01:05:29;;;;;;;2.47;1.20;;;;;;;2.97;86.60;98025.03;5063135;28;20262;-56
2021/12/07 01:08:14;;;;;;;1.90;0.90;;;;;;;2.99;85.93;98030.06;5060747;28;20194;-57
2021/12/07 01:24:41;;;;;;;2.13;0.87;;;;;;;3.15;84.27;98042.63;5060249;28;20188;-58
2021/12/07 01:27:10;;;;;;;0.97;0.70;;;;;;;3.14;84.46;98036.63;5060949;28;20194;-58
2021/12/07 01:29:39;;;;;;;1.80;0.80;;;;;;;3.19;84.09;98033.69;5060162;28;20179;-57
2021/12/07 01:32:18;;;;;;;1.47;0.83;;;;;;;3.19;83.83;98047.41;5061295;28;20222;-57
2021/12/07 01:35:21;;;;;;;0.90;0.70;;;;;;;3.21;83.74;98036.97;5061864;28;20216;-58
2021/12/07 01:38:21;;;;;;;1.00;0.80;;;;;;;3.16;85.16;98039.09;5061533;28;20240;-57
2021/12/07 01:41:11;;;;;;;1.87;1.03;;;;;;;3.16;86.26;98059.75;5062366;28;20225;-58
2021/12/07 01:44:09;;;;;;;1.30;0.70;;;;;;;3.12;86.30;98056.56;5062088;28;20194;-55
2021/12/07 01:46:54;;;;;;;2.20;1.30;;;;;;;3.11;85.44;98062.66;5060566;28;20656;-57
2021/12/07 01:52:31;;;;;;;2.67;0.90;;;;;;;3.17;84.48;98067.34;5059913;28;20263;-56
2021/12/07 01:59:31;;;;;;;1.40;1.00;;;;;;;3.17;85.18;98080.25;5059480;28;20222;-58
2021/12/07 02:00:42;;;;;;;3.67;1.10;;;;;;;3.16;85.25;98083.75;5059492;28;20208;-55
2021/12/07 02:03:10;;;;;;;1.77;1.00;;;;;;;3.16;84.50;98088.09;5064815;28;20194;-58
2021/12/07 02:05:39;;;;;;;1.43;0.97;;;;;;;3.17;85.28;98079.44;5062163;28;20182;-57
2021/12/07 02:08:06;;;;;;;2.50;1.10;;;;;;;3.14;86.10;98097.72;5057967;28;20195;-58
2021/12/07 02:10:34;;;;;;;2.40;1.37;;;;;;;3.16;86.01;98086.34;5066432;28;20309;-56
2021/12/07 02:13:19;;;;;;;1.80;1.10;;;;;;;3.13;86.21;98093.50;5069268;28;20563;-57
2021/12/07 02:15:48;;;;;;;1.60;1.20;;;;;;;3.14;85.47;98098.53;5068208;28;20198;-58
2021/12/07 02:18:16;;;;;;;1.97;1.23;;;;;;;3.14;85.70;98101.09;5069665;28;20622;-57
2021/12/07 02:20:46;;;;;;;2.57;1.00;;;;;;;3.13;85.91;98102.03;5057374;28;20210;-55
2021/12/07 02:23:13;;;;;;;1.87;1.20;;;;;;;3.15;85.95;98118.22;5079625;28;20194;-57
2021/12/07 02:25:40;;;;;;;1.87;0.97;;;;;;;3.15;85.34;98112.25;5082130;28;20199;-57
2021/12/07 02:28:13;;;;;;;2.17;1.00;;;;;;;3.16;85.68;98135.34;5064239;28;20191;-57
2021/12/07 02:30:41;;;;;;;1.33;1.10;;;;;;;3.15;86.70;98138.03;5062677;28;20706;-56
2021/12/07 02:33:09;;;;;;;1.43;1.00;;;;;;;3.11;86.72;98137.44;5060960;28;20301;-57
2021/12/07 02:35:36;;;;;;;3.37;1.30;;;;;;;3.13;85.69;98143.31;5060840;28;20268;-57
2021/12/07 02:38:06;;;;;;;2.53;2.33;;;;;;;3.15;86.04;98128.53;5061171;28;20306;-56
2021/12/07 02:40:36;;;;;;;2.47;1.20;;;;;;;3.16;85.92;98137.09;5060011;28;20582;-57
2021/12/07 02:43:05;;;;;;;1.40;0.90;;;;;;;3.15;86.20;98125.97;5060601;28;20273;-56
2021/12/07 02:45:32;;;;;;;2.23;0.90;;;;;;;3.15;86.64;98117.41;5061585;28;20214;-56
2021/12/07 02:47:59;;;;;;;1.63;0.90;;;;;;;3.17;86.26;98111.19;5059901;28;20191;-57
2021/12/07 02:50:27;;;;;;;2.13;1.10;;;;;;;3.17;86.38;98118.94;5060191;28;20210;-57
2021/12/07 02:52:54;;;;;;;1.67;1.00;;;;;;;3.17;86.26;98118.13;5061146;28;20643;-57
2021/12/07 02:55:22;;;;;;;1.70;0.90;;;;;;;3.21;85.64;98122.06;5064780;28;20606;-57
2021/12/07 02:57:50;;;;;;;2.03;0.93;;;;;;;3.22;84.68;98127.13;5065078;28;20193;-57
2021/12/07 03:00:25;;;;;;;1.73;1.10;;;;;;;3.27;84.36;98131.94;5063908;28;20213;-57
2021/12/07 03:03:01;;;;;;;2.23;0.90;;;;;;;3.31;85.52;98142.84;5062444;28;20560;-57
2021/12/07 03:05:39;;;;;;;1.27;0.90;;;;;;;3.31;84.72;98133.34;5064807;28;20663;-57
2021/12/07 03:27:55;;;;;;;2.50;1.30;;;;;;;3.39;84.79;98154.22;5057951;28;20183;-57
2021/12/07 03:30:24;;;;;;;1.83;1.00;;;;;;;3.40;84.92;98152.47;5052842;28;20265;-57
2021/12/07 03:32:51;;;;;;;6.40;1.20;;;;;;;3.42;84.03;98154.94;5054295;28;20216;-54
2021/12/07 03:35:18;;;;;;;1.20;1.10;;;;;;;3.44;83.88;98160.78;5053196;28;20191;-53
2021/12/07 03:37:46;;;;;;;3.23;1.10;;;;;;;3.47;83.28;98161.41;5053069;28;20195;-56
2021/12/07 03:40:15;;;;;;;2.47;0.77;;;;;;;3.52;83.51;98179.09;5052223;28;20208;-57
2021/12/07 03:42:42;;;;;;;3.57;1.10;;;;;;;3.50;83.20;98168.91;5053236;28;20635;-56
2021/12/07 03:45:15;;;;;;;1.33;0.80;;;;;;;3.56;83.04;98184.84;5053087;28;20191;-56
2021/12/07 03:47:42;;;;;;;2.53;0.90;;;;;;;3.56;81.84;98175.34;5054191;28;20719;-57
2021/12/07 03:50:11;;;;;;;1.17;0.80;;;;;;;3.53;83.06;98178.16;5053289;28;20759;-56
2021/12/07 03:52:39;;;;;;;2.70;0.97;;;;;;;3.53;82.56;98173.00;5052672;28;20184;-57
2021/12/07 03:55:08;;;;;;;4.25;1.60;;;;;;;3.52;82.66;98181.66;5052059;28;20435;-55
2021/12/07 03:57:35;;;;;;;5.07;1.33;;;;;;;3.52;83.34;98179.09;5062635;28;20203;-56
2021/12/07 04:00:07;;;;;;;2.13;1.13;;;;;;;3.53;82.33;98176.41;5065316;28;20222;-56
2021/12/07 04:02:43;;;;;;;3.60;1.30;;;;;;;3.52;82.87;98173.94;5066008;28;20244;-54
2021/12/07 04:05:18;;;;;;;3.77;1.20;;;;;;;3.54;81.96;98175.47;5071886;28;20190;-55
2021/12/07 04:07:48;;;;;;;4.07;1.27;;;;;;;3.58;81.66;98168.31;5072301;28;20195;-53
2021/12/07 04:10:18;;;;;;;4.10;1.20;;;;;;;3.66;80.78;98190.97;5071615;28;20214;-56
2021/12/07 04:12:46;;;;;;;6.37;1.43;;;;;;;3.65;82.04;98203.03;5072414;28;20699;-56
2021/12/07 04:15:16;;;;;;;6.20;1.30;;;;;;;3.65;82.36;98197.88;5072586;28;20197;-56
2021/12/07 04:17:45;;;;;;;3.07;0.93;;;;;;;3.67;82.27;98206.31;5072139;28;20290;-56
2021/12/07 04:20:15;;;;;;;3.47;1.07;;;;;;;3.63;82.64;98222.97;5071394;28;20691;-53
2021/12/07 04:22:42;;;;;;;5.90;1.27;;;;;;;3.54;83.45;98245.16;5073402;28;20614;-55
2021/12/07 04:25:11;;;;;;;2.57;1.10;;;;;;;3.24;87.38;98219.88;5073312;28;20221;-57
2021/12/07 04:27:39;;;;;;;3.93;1.27;;;;;;;3.14;88.10;98211.19;5073531;28;20184;-54
2021/12/07 04:30:10;;;;;;;3.70;2.00;;;;;;;3.07;88.10;98218.53;5072059;28;20202;-56
2021/12/07 04:32:37;;;;;;;3.43;1.43;;;;;;;3.09;89.08;98221.84;5073317;28;20273;-57
2021/12/07 04:35:07;;;;;;;2.30;1.10;;;;;;;3.08;88.87;98235.66;5073135;28;20283;-54
2021/12/07 04:37:34;;;;;;;5.10;1.03;;;;;;;3.12;87.46;98229.34;5073179;28;20210;-57
2021/12/07 04:40:01;;;;;;;5.17;1.13;;;;;;;3.18;87.01;98230.66;5072293;28;20213;-53
2021/12/07 04:42:28;;;;;;;2.60;1.47;;;;;;;3.15;87.56;98241.22;5073108;28;20188;-56
2021/12/07 04:44:59;;;;;;;3.40;1.40;;;;;;;3.13;87.59;98237.91;5072706;28;20191;-56
2021/12/07 04:47:35;;;;;;;24.97;8.53;;;;;;;3.09;89.69;98251.03;5070671;28;20248;-56
2021/12/07 04:50:28;;;;;;;3.67;1.70;;;;;;;3.02;88.55;98249.84;5063594;28;20228;-56
2021/12/07 04:58:26;;;;;;;3.23;1.57;;;;;;;2.85;91.06;98269.09;5072662;28;20234;-57
2021/12/07 05:00:53;;;;;;;4.23;2.07;;;;;;;2.86;91.99;98277.66;5071747;28;20198;-56
2021/12/07 05:03:20;;;;;;;5.17;1.77;;;;;;;2.83;90.86;98293.34;5072771;28;20175;-57
2021/12/07 05:05:50;;;;;;;6.93;1.70;;;;;;;2.77;91.56;98292.84;5072697;28;20295;-56
2021/12/07 05:08:31;;;;;;;8.37;1.93;;;;;;;2.72;91.65;98300.09;5072601;28;20262;-56
2021/12/07 05:11:25;;;;;;;5.97;1.77;;;;;;;2.67;91.87;98289.28;5071434;28;20206;-57
2021/12/07 05:14:00;;;;;;;5.33;1.73;;;;;;;2.64;91.92;98285.19;5072518;28;20614;-57
2021/12/07 05:16:46;;;;;;;5.70;1.97;;;;;;;2.64;91.63;98285.19;5071576;28;20186;-55
2021/12/07 05:24:54;;;;;;;4.63;1.50;;;;;;;2.61;92.46;98289.72;5072368;28;20239;-56
2021/12/07 05:38:21;;;;;;;1.60;0.90;;;;;;;2.55;91.04;98311.59;5063682;28;20194;-56
2021/12/07 05:40:49;;;;;;;4.13;1.13;;;;;;;2.58;91.44;98323.44;5071211;28;20242;-57
2021/12/07 05:43:16;;;;;;;5.00;1.10;;;;;;;2.65;89.92;98307.41;5072018;28;20679;-55
2021/12/07 05:45:43;;;;;;;5.17;1.53;;;;;;;2.69;88.78;98326.06;5071972;28;20197;-56
2021/12/07 05:48:10;;;;;;;2.20;1.20;;;;;;;2.73;88.36;98336.97;5072186;28;20286;-54
2021/12/07 05:50:39;;;;;;;5.30;1.20;;;;;;;2.74;89.41;98339.47;5070753;28;20206;-55
2021/12/07 05:53:08;;;;;;;4.70;2.33;;;;;;;2.76;88.15;98339.34;5071904;28;20266;-54
2021/12/07 05:55:36;;;;;;;5.13;1.67;;;;;;;2.79;88.59;98331.41;5071893;28;20182;-58
2021/12/07 05:58:04;;;;;;;2.47;1.37;;;;;;;2.78;88.10;98342.63;5070529;28;20202;-55
2021/12/07 06:00:33;;;;;;;8.87;4.73;;;;;;;2.81;87.53;98350.16;5070945;28;20277;-56
2021/12/07 06:03:02;;;;;;;5.40;1.70;;;;;;;2.84;87.85;98362.03;5071671;28;20193;-57
2021/12/07 06:05:30;;;;;;;3.17;1.80;;;;;;;2.80;88.37;98354.50;5071785;28;20207;-57
2021/12/07 06:07:57;;;;;;;10.53;5.83;;;;;;;2.84;88.17;98343.97;5071627;28;20210;-54
2021/12/07 06:10:25;;;;;;;6.47;1.83;;;;;;;2.84;86.73;98341.41;5070794;28;20290;-56
2021/12/07 06:12:52;;;;;;;4.10;1.77;;;;;;;2.86;87.92;98342.13;5071764;28;20234;-54
2021/12/07 06:15:23;;;;;;;5.37;1.93;;;;;;;2.90;84.94;98343.53;5071700;28;20210;-57
2021/12/07 06:17:51;;;;;;;5.60;1.73;;;;;;;2.90;86.86;98359.81;5070510;28;20198;-54
2021/12/07 06:20:19;;;;;;;3.50;1.70;;;;;;;2.93;85.48;98361.38;5065410;28;20285;-56
2021/12/07 06:22:46;;;;;;;5.30;2.00;;;;;;;2.99;85.47;98357.53;5067297;28;20714;-53
2021/12/07 06:25:14;;;;;;;7.47;1.50;;;;;;;3.00;84.40;98362.59;5067397;28;20190;-55
2021/12/07 06:27:41;;;;;;;9.70;2.30;;;;;;;3.03;85.42;98367.53;5071432;28;20560;-54
2021/12/07 06:30:11;;;;;;;3.80;1.53;;;;;;;3.05;86.21;98369.97;5074832;28;20786;-56
2021/12/07 06:32:39;;;;;;;5.20;1.83;;;;;;;3.06;86.39;98372.47;5075550;28;20215;-59
2021/12/07 06:35:08;;;;;;;8.13;1.57;;;;;;;3.07;86.37;98378.44;5074155;28;20752;-56
2021/12/07 06:37:35;;;;;;;7.07;1.73;;;;;;;3.11;84.22;98372.13;5075466;28;20217;-54
2021/12/07 06:40:03;;;;;;;5.50;1.70;;;;;;;3.10;83.22;98381.63;5074638;28;20213;-56
2021/12/07 06:42:29;;;;;;;5.07;1.90;;;;;;;3.07;84.32;98379.28;5075445;28;20229;-57
2021/12/07 06:44:57;;;;;;;6.43;2.00;;;;;;;3.10;84.24;98381.63;5075407;28;20651;-55
2021/12/07 06:47:23;;;;;;;5.43;1.77;;;;;;;3.10;82.73;98391.09;5075334;28;20672;-56
2021/12/07 06:49:51;;;;;;;6.30;1.80;;;;;;;3.16;83.46;98389.88;5074245;28;20298;-57
2021/12/07 06:52:18;;;;;;;5.77;2.03;;;;;;;3.22;82.47;98399.72;5075006;28;20654;-56
2021/12/07 06:54:45;;;;;;;7.63;1.80;;;;;;;3.24;80.76;98398.69;5075110;28;20202;-56
2021/12/07 06:57:12;;;;;;;9.03;1.93;;;;;;;3.21;82.28;98410.97;5075203;28;20229;-57
2021/12/07 06:59:39;;;;;;;6.97;1.50;;;;;;;3.18;81.97;98393.16;5074297;28;20235;-55
2021/12/07 07:02:05;;;;;;;7.53;1.30;;;;;;;3.19;81.37;98416.25;5074831;28;20269;-57
2021/12/07 07:04:32;;;;;;;5.20;1.30;;;;;;;3.27;79.06;98417.47;5074898;28;20193;-57
2021/12/07 07:07:00;;;;;;;5.63;1.63;;;;;;;3.28;80.33;98409.59;5074959;28;20218;-55
2021/12/07 07:09:27;;;;;;;5.23;1.70;;;;;;;3.26;79.75;98406.31;5072739;28;20294;-56
2021/12/07 07:11:54;;;;;;;51.53;24.47;;;;;;;3.25;80.94;98414.97;5073812;28;20218;-53
2021/12/07 07:14:21;;;;;;;9.03;2.30;;;;;;;3.23;81.17;98420.25;5074572;28;20218;-57
2021/12/07 07:16:48;;;;;;;8.27;3.23;;;;;;;3.27;80.62;98427.78;5074559;28;20269;-55
2021/12/07 07:19:14;;;;;;;7.90;1.73;;;;;;;3.29;80.61;98431.88;5074815;28;20210;-53
2021/12/07 07:21:41;;;;;;;7.40;1.60;;;;;;;3.29;79.88;98431.06;5073474;28;20735;-56
2021/12/07 07:24:10;;;;;;;14.10;9.13;;;;;;;3.31;79.13;98437.75;5074477;28;20218;-57
2021/12/07 07:26:37;;;;;;;3.47;1.83;;;;;;;3.30;79.78;98427.56;5073269;28;20214;-56
2021/12/07 07:29:04;;;;;;;7.73;2.07;;;;;;;3.36;78.21;98438.25;5074470;28;20663;-54
2021/12/07 07:31:31;;;;;;;4.37;1.50;;;;;;;3.39;77.97;98437.22;5073603;28;20256;-53
2021/12/07 07:33:57;;;;;;;5.57;1.60;;;;;;;3.43;78.69;98443.81;5074252;28;20617;-57
2021/12/07 07:36:24;;;;;;;4.90;1.50;;;;;;;3.38;79.60;98443.31;5074607;28;20265;-54
2021/12/07 07:38:51;;;;;;;8.27;1.47;;;;;;;3.34;79.05;98447.84;5074128;28;20214;-53
2021/12/07 07:41:20;;;;;;;7.70;1.67;;;;;;;3.38;78.74;98443.31;5071169;28;20238;-57
2021/12/07 07:43:47;;;;;;;6.70;1.90;;;;;;;3.35;79.29;98434.03;5074202;28;20191;-54
2021/12/07 07:46:17;;;;;;;7.53;1.53;;;;;;;3.40;79.51;98433.72;5072979;28;20285;-54
2021/12/07 07:48:46;;;;;;;6.97;1.43;;;;;;;3.43;79.73;98445.56;5073056;28;20195;-57
2021/12/07 07:51:13;;;;;;;6.00;1.73;;;;;;;3.44;79.42;98439.47;5073368;28;20571;-53
2021/12/07 07:53:39;;;;;;;9.10;1.77;;;;;;;3.43;78.60;98442.97;5070999;28;20238;-58
2021/12/07 07:56:08;;;;;;;6.73;1.70;;;;;;;3.44;78.14;98447.19;5062923;28;20770;-59
2021/12/07 07:58:36;;;;;;;6.63;1.30;;;;;;;3.46;79.04;98450.50;5067371;28;20192;-57
2021/12/07 08:01:04;;;;;;;6.73;1.97;;;;;;;3.48;78.88;98453.78;5066110;28;20229;-58
2021/12/07 08:03:31;;;;;;;6.30;1.70;;;;;;;3.45;78.63;98466.91;5064762;28;20187;-59
2021/12/07 08:05:58;;;;;;;8.77;1.70;;;;;;;3.48;77.55;98464.97;5064672;28;20206;-58
2021/12/07 08:08:27;;;;;;;7.70;2.13;;;;;;;3.45;78.43;98460.00;5065391;28;20195;-58
2021/12/07 08:10:54;;;;;;;8.60;2.03;;;;;;;3.50;78.17;98467.41;5061508;28;20225;-58
2021/12/07 08:13:22;;;;;;;7.93;2.00;;;;;;;3.48;78.16;98466.69;5063921;28;20623;-58
2021/12/07 08:15:51;;;;;;;6.00;2.00;;;;;;;3.48;77.54;98456.38;5065039;28;20759;-58
2021/12/07 08:18:19;;;;;;;5.27;2.10;;;;;;;3.49;77.36;98458.03;5062788;28;20202;-58
2021/12/07 08:20:47;;;;;;;6.10;1.70;;;;;;;3.54;75.13;98461.09;5066828;28;20709;-57
2021/12/07 08:23:14;;;;;;;6.50;1.90;;;;;;;3.56;76.97;98469.56;5064800;28;20201;-58
2021/12/07 08:25:44;;;;;;;5.13;1.80;;;;;;;3.53;78.06;98475.78;5061969;28;20184;-58
2021/12/07 08:28:13;;;;;;;6.27;2.60;;;;;;;3.54;76.96;98468.84;5053872;28;20207;-57
2021/12/07 08:30:41;;;;;;;6.80;1.77;;;;;;;3.55;75.26;98460.16;5052692;28;20205;-59
2021/12/07 08:33:10;;;;;;;11.57;1.83;;;;;;;3.60;75.81;98463.25;5052202;28;20230;-59
2021/12/07 08:35:37;;;;;;;6.60;1.80;;;;;;;3.58;75.97;98472.03;5053454;28;20215;-58
2021/12/07 08:38:05;;;;;;;6.53;1.80;;;;;;;3.60;75.60;98465.81;5052204;28;20665;-59
2021/12/07 08:40:34;;;;;;;5.20;1.53;;;;;;;3.63;74.80;98473.34;5057635;28;20333;-59
2021/12/07 08:43:01;;;;;;;18.00;7.17;;;;;;;3.73;73.82;98483.00;5062131;28;20198;-57
2021/12/07 08:45:28;;;;;;;26.50;11.03;;;;;;;3.67;76.20;98479.94;5065873;28;20269;-58
2021/12/07 08:47:55;;;;;;;26.03;10.90;;;;;;;3.72;75.59;98484.75;5066564;28;20698;-59
2021/12/07 08:50:26;;;;;;;6.17;2.07;;;;;;;3.76;75.20;98488.75;5063704;28;20219;-59
2021/12/07 08:52:55;;;;;;;8.10;2.10;;;;;;;3.82;75.75;98490.09;5061992;28;20244;-59
2021/12/07 09:00:53;;;;;;;5.70;1.50;;;;;;;3.93;74.19;98487.56;5062332;28;20219;-58
2021/12/07 09:03:20;;;;;;;7.83;1.90;;;;;;;3.99;75.70;98488.84;5061289;28;20184;-58
2021/12/07 09:05:49;;;;;;;4.77;1.90;;;;;;;4.03;74.33;98492.84;5060003;28;20188;-59
2021/12/07 09:08:16;;;;;;;10.40;3.07;;;;;;;4.11;74.22;98497.47;5052868;28;20660;-58
2021/12/07 09:10:44;;;;;;;15.10;4.50;;;;;;;4.03;73.21;98497.22;5051726;28;20293;-58
2021/12/07 09:13:11;;;;;;;10.70;5.77;;;;;;;4.12;73.12;98496.53;5052631;28;20266;-59
2021/12/07 09:15:39;;;;;;;16.67;3.90;;;;;;;4.11;75.07;98498.28;5052620;28;20246;-59
2021/12/07 09:18:06;;;;;;;12.03;3.53;;;;;;;4.08;73.93;98498.50;5052508;28;20195;-59
2021/12/07 09:20:34;;;;;;;11.87;5.73;;;;;;;4.12;74.17;98501.72;5051827;28;20215;-59
2021/12/07 09:23:03;;;;;;;5.93;1.70;;;;;;;4.06;73.79;98502.97;5052514;28;20191;-58
2021/12/07 09:25:30;;;;;;;9.65;5.93;;;;;;;4.09;72.58;98499.34;5051643;28;20511;-59
2021/12/07 09:27:58;;;;;;;10.10;2.80;;;;;;;4.08;73.33;98506.25;5067830;28;20187;-58
2021/12/07 09:30:25;;;;;;;8.07;2.40;;;;;;;4.09;72.83;98504.53;5071899;28;20216;-54
2021/12/07 09:32:52;;;;;;;4.40;1.53;;;;;;;4.12;72.74;98497.34;5071873;28;20217;-53
2021/12/07 09:35:20;;;;;;;6.50;2.20;;;;;;;4.16;72.81;98497.13;5071999;28;20612;-56
2021/12/07 09:37:47;;;;;;;5.77;2.70;;;;;;;4.33;72.23;98493.28;5064721;28;20182;-53
2021/12/07 09:40:17;;;;;;;3.63;1.87;;;;;;;4.48;72.80;98489.56;5071628;28;20213;-55
2021/12/07 09:42:44;;;;;;;7.27;2.60;;;;;;;4.50;72.00;98485.09;5072419;28;20229;-55
2021/12/07 09:45:13;;;;;;;7.63;3.53;;;;;;;4.52;71.59;98487.59;5072282;28;20715;-53
2021/12/07 09:47:40;;;;;;;7.50;1.20;;;;;;;4.57;71.23;98481.09;5070917;28;20285;-54
2021/12/07 09:50:12;;;;;;;5.30;2.40;;;;;;;4.46;71.52;98465.59;5071526;28;20268;-58
2021/12/07 09:52:39;;;;;;;5.73;2.93;;;;;;;4.36;71.41;98477.56;5072113;28;20612;-58
2021/12/07 09:55:07;;;;;;;11.83;3.57;;;;;;;4.42;72.39;98474.50;5072207;28;20290;-54
2021/12/07 09:57:36;;;;;;;10.47;3.17;;;;;;;4.37;71.84;98471.44;5072093;28;20213;-53
2021/12/07 10:00:05;;;;;;;5.10;1.90;;;;;;;4.29;72.36;98467.66;5071176;28;20206;-53
2021/12/07 10:02:39;;;;;;;5.03;1.67;;;;;;;4.25;72.75;98468.03;5071395;28;20269;-55
2021/12/07 10:05:07;;;;;;;5.63;1.53;;;;;;;4.25;72.43;98449.94;5071756;28;20213;-53
2021/12/07 10:07:37;;;;;;;5.70;1.87;;;;;;;4.29;71.82;98462.50;5071790;28;20222;-53
2021/12/07 10:10:09;;;;;;;47.77;19.30;;;;;;;4.29;72.22;98457.34;5070335;28;20214;-56
2021/12/07 10:12:37;;;;;;;9.87;3.70;;;;;;;4.33;71.62;98454.53;5062401;28;20199;-55
2021/12/07 10:15:06;;;;;;;9.27;2.67;;;;;;;4.30;69.62;98442.66;5070306;28;20202;-57
2021/12/07 10:17:37;;;;;;;10.37;3.90;;;;;;;4.28;70.38;98436.78;5071581;28;20198;-53
2021/12/07 10:20:31;;;;;;;7.50;2.80;;;;;;;4.35;69.47;98432.81;5070674;28;20695;-56
2021/12/07 10:23:04;;;;;;;12.43;3.13;;;;;;;4.34;70.47;98427.75;5065944;28;20531;-56
2021/12/07 10:25:31;;;;;;;7.40;2.93;;;;;;;4.51;70.19;98437.63;5071781;28;20251;-59
2021/12/07 10:28:00;;;;;;;13.27;7.53;;;;;;;4.62;70.55;98438.56;5071764;28;20216;-59
2021/12/07 10:30:27;;;;;;;6.13;2.60;;;;;;;4.67;69.43;98423.53;5070743;28;20202;-59
2021/12/07 10:32:59;;;;;;;8.77;5.73;;;;;;;4.70;69.93;98420.72;5071663;28;20182;-59
2021/12/07 10:35:28;;;;;;;11.07;4.67;;;;;;;4.69;67.07;98404.41;5071644;28;20556;-58
2021/12/07 10:38:09;;;;;;;9.80;5.53;;;;;;;4.61;67.60;98405.91;5071576;28;20193;-58
2021/12/07 10:40:37;;;;;;;17.83;9.83;;;;;;;4.60;69.09;98404.25;5070794;28;20723;-58
2021/12/07 10:43:05;;;;;;;6.57;1.70;;;;;;;4.55;67.95;98399.47;5061772;28;20190;-59
2021/12/07 10:45:32;;;;;;;7.37;1.40;;;;;;;4.67;68.86;98395.09;5051516;28;20207;-57
2021/12/07 10:47:59;;;;;;;8.37;1.80;;;;;;;4.66;69.16;98396.03;5054818;28;20197;-58
2021/12/07 10:50:26;;;;;;;6.73;1.73;;;;;;;4.65;69.52;98404.72;5066457;28;20714;-55
2021/12/07 10:52:57;;;;;;;7.80;2.17;;;;;;;4.67;68.97;98406.28;5061817;28;20189;-56
2021/12/07 10:55:26;;;;;;;7.17;2.27;;;;;;;4.68;67.98;98395.00;5055070;28;20584;-57
2021/12/07 10:57:56;;;;;;;5.30;1.60;;;;;;;4.84;68.22;98393.78;5059017;28;20231;-58
2021/12/07 11:00:29;;;;;;;8.57;1.77;;;;;;;4.87;70.44;98396.97;5060038;28;20719;-57
2021/12/07 11:02:57;;;;;;;9.00;2.20;;;;;;;5.11;67.68;98395.97;5062864;28;20188;-59
2021/12/07 11:05:27;;;;;;;10.37;1.87;;;;;;;5.04;68.48;98399.97;5064384;28;20192;-58
2021/12/07 11:07:56;;;;;;;9.73;1.70;;;;;;;5.01;68.06;98388.09;5070116;28;20274;-58
2021/12/07 11:10:29;;;;;;;6.67;1.20;;;;;;;5.10;68.62;98385.72;5069213;28;20587;-59
2021/12/07 11:13:01;;;;;;;4.80;1.30;;;;;;;5.13;65.69;98375.97;5070601;28;20194;-59
2021/12/07 11:15:31;;;;;;;3.87;1.27;;;;;;;5.11;66.62;98372.69;5072875;28;20200;-58
2021/12/07 11:18:01;;;;;;;3.87;1.00;;;;;;;4.98;67.59;98359.88;5073844;28;20199;-58
2021/12/07 11:20:29;;;;;;;6.77;1.57;;;;;;;4.98;66.89;98353.91;5072707;28;20202;-59
2021/12/07 11:22:59;;;;;;;3.13;1.00;;;;;;;4.86;67.27;98347.91;5073777;28;20199;-58
2021/12/07 11:25:53;;;;;;;5.80;1.40;;;;;;;4.73;67.17;98327.38;5073759;28;20191;-59
2021/12/07 11:31:20;;;;;;;6.20;1.70;;;;;;;4.86;67.12;98319.47;5072934;28;20279;-59
2021/12/07 11:33:49;;;;;;;4.20;1.30;;;;;;;5.64;71.59;98310.69;5073985;28;20189;-54
2021/12/07 11:36:17;;;;;;;10.93;3.00;;;;;;;5.82;67.62;98316.09;5073758;28;20210;-55
2021/12/07 11:38:44;;;;;;;7.17;1.57;;;;;;;5.78;66.66;98310.34;5073216;28;20182;-55
2021/12/07 11:41:16;;;;;;;4.43;1.20;;;;;;;5.79;64.57;98305.97;5072852;28;20208;-55
2021/12/07 11:44:01;;;;;;;6.70;1.63;;;;;;;6.12;63.31;98294.56;5073646;28;20236;-54
2021/12/07 11:46:31;;;;;;;7.00;1.30;;;;;;;5.68;63.29;98293.94;5071045;28;20728;-58
2021/12/07 11:49:14;;;;;;;5.67;1.23;;;;;;;5.29;63.84;98297.91;5064018;28;20766;-58
2021/12/07 11:51:43;;;;;;;4.23;1.27;;;;;;;5.41;64.89;98290.91;5071393;28;20217;-60
2021/12/07 11:54:10;;;;;;;4.83;1.50;;;;;;;5.31;65.80;98295.19;5071837;28;20237;-59
2021/12/07 11:56:38;;;;;;;5.77;1.40;;;;;;;5.37;63.58;98289.50;5060578;28;20220;-58
2021/12/07 11:59:05;;;;;;;8.47;1.97;;;;;;;5.35;66.17;98291.41;5073147;28;20182;-58
2021/12/07 12:01:33;;;;;;;5.13;1.60;;;;;;;5.40;64.76;98280.69;5071373;28;20215;-59
2021/12/07 12:04:01;;;;;;;6.43;1.77;;;;;;;5.38;65.68;98280.00;5073274;28;20716;-59
2021/12/07 12:06:28;;;;;;;7.33;2.10;;;;;;;5.24;66.69;98271.59;5073311;28;20183;-58
2021/12/07 12:08:56;;;;;;;7.57;1.60;;;;;;;5.23;65.46;98258.78;5072377;28;20186;-59
2021/12/07 12:11:32;;;;;;;8.03;1.57;;;;;;;5.22;67.11;98254.56;5072239;28;20237;-60
2021/12/07 12:14:11;;;;;;;10.03;1.57;;;;;;;5.15;67.07;98247.31;5072658;28;20217;-59
2021/12/07 12:16:50;;;;;;;6.53;1.70;;;;;;;5.24;67.18;98250.88;5072673;28;20245;-58
2021/12/07 12:19:23;;;;;;;3.87;1.40;;;;;;;5.26;64.83;98241.22;5071780;28;20190;-59
2021/12/07 12:21:56;;;;;;;5.77;1.33;;;;;;;5.28;65.22;98241.13;5071786;28;20252;-57
2021/12/07 12:24:32;;;;;;;6.13;1.67;;;;;;;5.30;65.49;98236.63;5067587;28;20277;-59
2021/12/07 12:27:07;;;;;;;6.50;1.83;;;;;;;5.36;64.99;98232.72;5072233;28;20240;-58
2021/12/07 12:29:37;;;;;;;7.70;1.57;;;;;;;5.38;64.88;98223.06;5065213;28;20195;-57
2021/12/07 12:32:06;;;;;;;5.87;2.10;;;;;;;5.37;64.78;98214.44;5061528;28;20195;-58
2021/12/07 12:34:36;;;;;;;4.73;1.90;;;;;;;5.39;65.54;98215.13;5068515;28;20199;-59
2021/12/07 12:37:07;;;;;;;5.07;1.50;;;;;;;5.38;64.85;98218.69;5066074;28;20219;-60
2021/12/07 12:39:43;;;;;;;6.00;1.43;;;;;;;5.34;65.26;98208.72;5067872;28;20195;-58
2021/12/07 12:42:10;;;;;;;4.37;1.70;;;;;;;5.30;64.77;98203.00;5072446;28;20274;-58
2021/12/07 12:44:38;;;;;;;6.33;1.30;;;;;;;5.29;65.70;98196.97;5071969;28;20244;-59
2021/12/07 12:47:07;;;;;;;5.20;1.60;;;;;;;5.34;65.62;98204.34;5072487;28;20298;-59
2021/12/07 12:49:38;;;;;;;6.30;1.40;;;;;;;5.38;64.58;98202.34;5071542;28;20254;-58
2021/12/07 12:52:06;;;;;;;5.57;1.10;;;;;;;5.40;64.11;98196.06;5071889;28;20268;-58
2021/12/07 12:54:45;;;;;;;4.93;1.30;;;;;;;5.42;63.75;98186.41;5072270;28;20221;-53
2021/12/07 12:57:13;;;;;;;4.53;1.00;;;;;;;5.42;64.31;98176.06;5062732;28;20305;-53
2021/12/07 12:59:42;;;;;;;6.00;1.80;;;;;;;5.36;64.69;98173.19;5068125;28;20195;-59
2021/12/07 13:02:11;;;;;;;2.30;1.00;;;;;;;5.41;63.94;98177.00;5072008;28;20269;-53
2021/12/07 13:04:38;;;;;;;4.37;1.43;;;;;;;5.49;62.37;98173.78;5072192;28;20240;-57